createdAt,value
2018-02-24T00:00:45.245Z,25.07
2018-02-24T00:03:12.824Z,25.90
2018-02-24T00:05:40.311Z,27.13
2018-02-24T00:08:07.815Z,26.67
2018-02-24T00:10:35.343Z,25.13
2018-02-24T00:13:03.287Z,25.77
2018-02-24T00:15:30.851Z,25.20
2018-02-24T00:17:58.334Z,24.47
2018-02-24T00:20:25.846Z,21.80
2018-02-24T00:22:53.354Z,26.77
2018-02-24T00:25:20.864Z,23.90
2018-02-24T00:27:48.375Z,23.87
2018-02-24T00:30:15.874Z,25.00
2018-02-24T00:32:43.440Z,28.73
2018-02-24T00:35:10.954Z,24.40
2018-02-24T00:37:38.443Z,25.10
2018-02-24T00:40:05.989Z,25.20
2018-02-24T00:42:33.476Z,25.97
2018-02-24T00:45:00.974Z,25.40
2018-02-24T00:47:28.546Z,25.07
2018-02-24T00:49:56.043Z,24.57
2018-02-24T00:52:23.549Z,26.27
2018-02-24T00:54:51.132Z,25.43
2018-02-24T00:57:18.679Z,24.23
2018-02-24T00:59:46.172Z,24.37
2018-02-24T01:02:13.722Z,23.67
2018-02-24T01:04:41.332Z,23.97
2018-02-24T01:07:08.834Z,24.00
2018-02-24T01:09:36.380Z,24.93
2018-02-24T01:12:03.859Z,23.37
2018-02-24T01:14:31.342Z,24.23
2018-02-24T01:16:58.863Z,24.87
2018-02-24T01:19:26.349Z,23.73
2018-02-24T01:21:54.255Z,24.30
2018-02-24T01:24:21.775Z,24.00
2018-02-24T01:26:49.355Z,23.53
2018-02-24T01:29:16.859Z,23.27
2018-02-24T01:31:44.363Z,22.43
2018-02-24T01:34:11.867Z,26.40
2018-02-24T01:36:39.374Z,24.90
2018-02-24T01:39:06.903Z,22.00
2018-02-24T01:41:34.423Z,25.27
2018-02-24T01:44:01.903Z,23.87
2018-02-24T01:46:29.394Z,23.80
2018-02-24T01:48:56.892Z,23.77
2018-02-24T01:51:24.458Z,23.17
2018-02-24T01:53:51.949Z,23.70
2018-02-24T01:56:19.469Z,26.40
2018-02-24T01:58:46.954Z,25.10
2018-02-24T02:01:14.458Z,24.70
2018-02-24T02:03:41.999Z,25.20
2018-02-24T02:06:09.472Z,23.77
2018-02-24T02:08:36.979Z,23.60
2018-02-24T02:11:04.473Z,23.50
2018-02-24T02:13:31.978Z,23.60
2018-02-24T02:15:59.490Z,24.83
2018-02-24T02:18:27.009Z,23.87
2018-02-24T02:20:54.517Z,23.83
2018-02-24T02:23:22.011Z,24.40
2018-02-24T02:25:49.517Z,24.93
2018-02-24T02:28:17.123Z,23.97
2018-02-24T02:30:44.677Z,24.60
2018-02-24T02:33:12.210Z,24.47
2018-02-24T02:35:39.786Z,23.70
2018-02-24T02:38:07.311Z,27.00
2018-02-24T02:40:34.851Z,26.17
2018-02-24T02:43:02.857Z,24.77
2018-02-24T02:45:30.369Z,27.03
2018-02-24T02:47:58.269Z,24.60
2018-02-24T02:50:25.841Z,25.00
2018-02-24T02:52:53.409Z,23.87
2018-02-24T02:55:20.951Z,24.00
2018-02-24T02:57:48.523Z,25.77
2018-02-24T03:00:16.060Z,24.27
2018-02-24T03:02:43.566Z,30.53
2018-02-24T03:05:11.100Z,24.70
2018-02-24T03:07:38.623Z,24.60
2018-02-24T03:10:06.119Z,23.00
2018-02-24T03:12:33.704Z,26.13
2018-02-24T03:15:01.611Z,23.93
2018-02-24T03:17:29.122Z,24.50
2018-02-24T03:19:56.646Z,27.63
2018-02-24T03:22:24.219Z,25.90
2018-02-24T03:24:51.871Z,26.27
2018-02-24T03:27:19.403Z,23.43
2018-02-24T03:29:46.953Z,28.43
2018-02-24T03:32:14.473Z,24.53
2018-02-24T03:34:42.034Z,25.07
2018-02-24T03:37:09.522Z,23.30
2018-02-24T03:39:36.999Z,24.53
2018-02-24T03:42:04.529Z,26.60
2018-02-24T03:44:32.062Z,23.63
2018-02-24T03:46:59.582Z,27.07
2018-02-24T03:49:27.146Z,29.03
2018-02-24T03:51:54.657Z,22.60
2018-02-24T03:54:22.150Z,25.63
2018-02-24T03:56:49.725Z,25.47
2018-02-24T03:59:17.210Z,24.97
2018-02-24T04:01:44.701Z,24.77
2018-02-24T04:04:12.232Z,23.57
2018-02-24T04:06:40.095Z,24.60
2018-02-24T04:09:08.030Z,25.33
2018-02-24T04:11:35.620Z,25.57
2018-02-24T04:14:03.310Z,22.97
2018-02-24T04:16:30.830Z,24.53
2018-02-24T04:18:58.363Z,24.67
2018-02-24T04:21:25.904Z,24.23
2018-02-24T04:23:53.430Z,24.70
2018-02-24T04:26:21.376Z,24.13
2018-02-24T04:28:48.851Z,23.87
2018-02-24T04:31:16.837Z,24.20
2018-02-24T04:33:44.294Z,23.70
2018-02-24T04:36:11.816Z,26.40
2018-02-24T04:38:39.362Z,24.30
2018-02-24T04:41:06.900Z,24.97
2018-02-24T04:43:34.370Z,23.27
2018-02-24T04:46:01.883Z,24.67
2018-02-24T04:48:29.374Z,26.43
2018-02-24T04:50:56.911Z,26.03
2018-02-24T04:53:24.415Z,25.30
2018-02-24T04:55:51.898Z,25.97
2018-02-24T04:58:19.405Z,24.20
2018-02-24T05:00:46.971Z,23.70
2018-02-24T05:03:14.454Z,26.43
2018-02-24T05:05:42.333Z,23.30
2018-02-24T05:08:09.823Z,27.13
2018-02-24T05:10:37.354Z,22.07
2018-02-24T05:13:04.838Z,24.67
2018-02-24T05:15:35.963Z,23.80
2018-02-24T05:18:03.475Z,28.87
2018-02-24T05:20:30.965Z,21.90
2018-02-24T05:22:58.472Z,26.13
2018-02-24T05:25:25.959Z,24.17
2018-02-24T05:27:53.481Z,23.70
2018-02-24T05:30:21.004Z,25.70
2018-02-24T05:32:48.537Z,24.67
2018-02-24T05:35:16.074Z,23.90
2018-02-24T05:37:43.662Z,24.87
2018-02-24T05:40:11.146Z,23.00
2018-02-24T05:42:38.647Z,23.03
2018-02-24T05:45:06.219Z,21.80
2018-02-24T05:47:34.177Z,22.33
2018-02-24T05:50:02.099Z,23.67
2018-02-24T05:52:30.068Z,23.57
2018-02-24T05:54:57.591Z,23.03
2018-02-24T05:57:25.200Z,24.97
2018-02-24T05:59:52.795Z,23.40
2018-02-24T06:02:20.351Z,25.30
2018-02-24T06:04:47.937Z,24.53
2018-02-24T06:07:15.526Z,23.87
2018-02-24T06:09:43.046Z,28.60
2018-02-24T06:12:10.566Z,26.17
2018-02-24T06:14:38.136Z,25.40
2018-02-24T06:17:05.755Z,22.97
2018-02-24T06:19:33.324Z,24.10
2018-02-24T06:22:00.938Z,24.00
2018-02-24T06:24:28.446Z,30.37
2018-02-24T06:26:56.002Z,24.33
2018-02-24T06:29:23.511Z,24.00
2018-02-24T06:31:51.073Z,24.40
2018-02-24T06:34:18.545Z,24.83
2018-02-24T06:36:46.064Z,25.57
2018-02-24T06:39:13.638Z,27.30
2018-02-24T06:41:41.550Z,22.57
2018-02-24T06:44:09.172Z,24.17
2018-02-24T06:46:36.699Z,26.60
2018-02-24T06:49:04.676Z,25.40
2018-02-24T06:51:32.626Z,24.87
2018-02-24T06:54:00.222Z,24.07
2018-02-24T06:56:27.743Z,26.97
2018-02-24T06:58:55.348Z,25.40
2018-02-24T07:01:22.937Z,23.97
2018-02-24T07:03:50.522Z,24.20
2018-02-24T07:06:18.139Z,24.37
2018-02-24T07:08:45.631Z,24.63
2018-02-24T07:11:13.143Z,25.73
2018-02-24T07:13:40.676Z,24.20
2018-02-24T07:16:08.613Z,25.97
2018-02-24T07:18:36.201Z,25.47
2018-02-24T07:21:04.182Z,24.17
2018-02-24T07:23:31.783Z,24.77
2018-02-24T07:25:59.405Z,26.40
2018-02-24T07:28:27.417Z,24.17
2018-02-24T07:30:54.902Z,24.73
2018-02-24T07:33:22.778Z,26.60
2018-02-24T07:35:50.690Z,24.90
2018-02-24T07:38:18.219Z,26.57
2018-02-24T07:40:45.732Z,23.73
2018-02-24T07:43:13.294Z,25.50
2018-02-24T07:45:40.812Z,26.47
2018-02-24T07:48:08.338Z,23.57
2018-02-24T07:50:36.241Z,26.30
2018-02-24T07:53:03.797Z,24.33
2018-02-24T07:55:31.359Z,24.97
2018-02-24T07:57:59.460Z,26.43
2018-02-24T08:00:26.950Z,23.00
2018-02-24T08:02:54.884Z,24.10
2018-02-24T08:05:22.848Z,26.80
2018-02-24T08:07:50.389Z,23.97
2018-02-24T08:10:17.936Z,24.67
2018-02-24T08:12:45.568Z,25.77
2018-02-24T08:15:13.212Z,25.87
2018-02-24T08:17:41.189Z,23.27
2018-02-24T08:20:08.740Z,25.53
2018-02-24T08:22:36.267Z,26.43
2018-02-24T08:25:03.811Z,24.03
2018-02-24T08:27:31.325Z,31.03
2018-02-24T08:29:58.849Z,23.73
2018-02-24T08:32:26.437Z,24.63
2018-02-24T08:34:54.011Z,25.60
2018-02-24T08:37:21.588Z,25.90
2018-02-24T08:39:49.110Z,27.13
2018-02-24T08:42:18.468Z,28.57
2018-02-24T08:44:46.983Z,25.33
2018-02-24T08:47:14.577Z,27.27
2018-02-24T08:49:42.158Z,25.60
2018-02-24T08:52:09.666Z,25.33
2018-02-24T08:54:37.246Z,25.00
2018-02-24T08:57:04.764Z,24.97
2018-02-24T08:59:32.752Z,24.80
2018-02-24T09:02:00.364Z,25.00
2018-02-24T09:04:27.959Z,23.47
2018-02-24T09:06:55.597Z,23.87
2018-02-24T09:09:23.222Z,26.50
2018-02-24T09:11:50.804Z,26.13
2018-02-24T09:14:18.306Z,25.93
2018-02-24T09:16:45.928Z,24.63
2018-02-24T09:19:13.548Z,21.10
2018-02-24T09:21:41.071Z,25.33
2018-02-24T09:24:09.067Z,26.87
2018-02-24T09:26:36.726Z,29.00
2018-02-24T09:29:04.355Z,22.40
2018-02-24T09:31:32.327Z,23.83
2018-02-24T09:33:59.868Z,30.30
2018-02-24T09:36:27.491Z,25.30
2018-02-24T09:38:56.011Z,23.53
2018-02-24T09:41:23.527Z,23.63
2018-02-24T09:43:51.081Z,26.30
2018-02-24T09:46:18.882Z,23.40
2018-02-24T09:48:46.469Z,24.87
2018-02-24T09:51:14.394Z,24.03
2018-02-24T09:53:42.012Z,28.40
2018-02-24T09:56:09.636Z,23.23
2018-02-24T09:58:37.167Z,24.43
2018-02-24T10:01:04.760Z,26.27
2018-02-24T10:03:32.410Z,24.87
2018-02-24T10:06:00.002Z,25.33
2018-02-24T10:08:27.638Z,23.37
2018-02-24T10:10:55.227Z,25.30
2018-02-24T10:13:26.463Z,26.37
2018-02-24T10:15:54.091Z,25.83
2018-02-24T10:18:21.667Z,26.20
2018-02-24T10:20:49.313Z,24.30
2018-02-24T10:23:16.903Z,24.60
2018-02-24T10:25:44.497Z,24.87
2018-02-24T10:28:12.817Z,24.53
2018-02-24T10:30:40.392Z,28.07
2018-02-24T10:33:07.971Z,24.53
2018-02-24T10:35:35.579Z,23.57
2018-02-24T10:38:03.185Z,29.17
2018-02-24T10:40:30.760Z,25.10
2018-02-24T10:42:58.379Z,24.83
2018-02-24T10:45:26.374Z,27.17
2018-02-24T10:47:54.444Z,25.77
2018-02-24T10:50:22.019Z,26.20
2018-02-24T10:52:49.653Z,25.93
2018-02-24T10:55:17.278Z,26.20
2018-02-24T10:57:45.554Z,23.97
2018-02-24T11:00:13.296Z,24.80
2018-02-24T11:02:41.094Z,27.50
2018-02-24T11:05:08.745Z,26.47
2018-02-24T11:07:36.758Z,25.23
2018-02-24T11:10:06.819Z,24.20
2018-02-24T11:12:34.462Z,26.53
2018-02-24T11:15:02.141Z,24.70
2018-02-24T11:17:29.719Z,26.70
2018-02-24T11:19:57.286Z,27.17
2018-02-24T11:22:24.918Z,25.13
2018-02-24T11:24:52.540Z,25.63
2018-02-24T11:27:20.105Z,25.73
2018-02-24T11:29:47.734Z,24.83
2018-02-24T11:32:15.286Z,25.77
2018-02-24T11:34:42.905Z,24.60
2018-02-24T11:37:10.505Z,25.97
2018-02-24T11:39:40.230Z,23.83
2018-02-24T11:42:07.775Z,25.43
2018-02-24T11:44:35.310Z,25.47
2018-02-24T11:47:02.895Z,24.97
2018-02-24T11:49:30.522Z,24.80
2018-02-24T11:51:58.096Z,25.67
2018-02-24T11:54:25.659Z,25.87
2018-02-24T11:56:53.363Z,23.37
2018-02-24T11:59:21.764Z,23.70
2018-02-24T12:01:49.385Z,27.40
2018-02-24T12:04:17.024Z,25.70
2018-02-24T12:06:44.568Z,25.07
2018-02-24T12:09:12.526Z,26.43
2018-02-24T12:11:41.203Z,24.80
2018-02-24T12:14:08.806Z,26.07
2018-02-24T12:16:36.407Z,26.07
2018-02-24T12:19:04.035Z,26.27
2018-02-24T12:21:31.682Z,26.03
2018-02-24T12:23:59.255Z,25.03
2018-02-24T12:26:26.751Z,22.97
2018-02-24T12:28:54.391Z,23.60
2018-02-24T12:31:22.051Z,24.90
2018-02-24T12:33:49.626Z,24.63
2018-02-24T12:36:17.204Z,23.87
2018-02-24T12:38:44.798Z,26.60
2018-02-24T12:41:12.391Z,24.93
2018-02-24T12:43:39.979Z,23.20
2018-02-24T12:46:07.582Z,24.43
2018-02-24T12:48:35.099Z,23.93
2018-02-24T12:51:03.639Z,23.10
2018-02-24T12:53:31.226Z,24.27
2018-02-24T12:55:58.850Z,23.30
2018-02-24T12:58:26.477Z,22.97
2018-02-24T13:00:54.394Z,21.67
2018-02-24T13:03:21.970Z,23.53
2018-02-24T13:05:49.628Z,23.40
2018-02-24T13:08:17.304Z,24.47
2018-02-24T13:10:44.913Z,27.73
2018-02-24T13:13:12.598Z,25.07
2018-02-24T13:15:40.199Z,24.30
2018-02-24T13:18:08.654Z,24.97
2018-02-24T13:20:36.472Z,25.67
2018-02-24T13:23:04.047Z,21.93
2018-02-24T13:25:31.577Z,24.50
2018-02-24T13:27:59.156Z,26.23
2018-02-24T13:30:26.699Z,24.97
2018-02-24T13:32:54.263Z,26.13
2018-02-24T13:35:21.783Z,24.50
2018-02-24T13:37:49.779Z,24.57
2018-02-24T13:40:17.387Z,25.60
2018-02-24T13:42:45.041Z,31.30
2018-02-24T13:45:12.658Z,25.73
2018-02-24T13:47:40.248Z,27.33
2018-02-24T13:50:07.783Z,26.40
2018-02-24T13:52:35.384Z,25.00
2018-02-24T13:55:02.850Z,26.13
2018-02-24T13:57:30.472Z,28.07
2018-02-24T13:59:58.177Z,24.47
2018-02-24T14:02:25.750Z,25.17
2018-02-24T14:04:53.344Z,26.30
2018-02-24T14:07:21.042Z,25.03
2018-02-24T14:09:48.583Z,30.60
2018-02-24T14:12:16.163Z,27.37
2018-02-24T14:14:43.700Z,25.63
2018-02-24T14:17:11.900Z,25.20
2018-02-24T14:19:39.438Z,26.40
2018-02-24T14:22:07.049Z,25.53
2018-02-24T14:24:34.646Z,24.07
2018-02-24T14:27:02.299Z,27.70
2018-02-24T14:29:29.983Z,24.10
2018-02-24T14:31:57.603Z,28.07
2018-02-24T14:34:25.193Z,26.73
2018-02-24T14:36:52.860Z,23.70
2018-02-24T14:39:20.366Z,25.07
2018-02-24T14:41:47.886Z,25.70
2018-02-24T14:44:15.443Z,25.23
2018-02-24T14:46:43.049Z,25.90
2018-02-24T14:49:11.275Z,23.03
2018-02-24T14:51:38.843Z,24.57
2018-02-24T14:54:06.399Z,23.57
2018-02-24T14:56:34.020Z,28.70
2018-02-24T14:59:08.196Z,23.60
2018-02-24T15:01:36.197Z,23.97
2018-02-24T15:04:03.813Z,27.50
2018-02-24T15:06:31.805Z,28.03
2018-02-24T15:08:59.432Z,24.67
2018-02-24T15:11:27.056Z,23.23
2018-02-24T15:13:55.584Z,23.20
2018-02-24T15:16:23.172Z,23.43
2018-02-24T15:18:50.835Z,21.77
2018-02-24T15:21:18.468Z,24.03
2018-02-24T15:23:46.448Z,23.23
2018-02-24T15:26:14.998Z,23.47
2018-02-24T15:28:42.502Z,24.63
2018-02-24T15:31:10.038Z,21.23
2018-02-24T15:33:37.612Z,21.33
2018-02-24T15:36:05.180Z,23.00
2018-02-24T15:38:32.699Z,22.33
2018-02-24T15:41:00.760Z,24.33
2018-02-24T15:43:28.307Z,21.50
2018-02-24T15:45:55.812Z,20.93
2018-02-24T15:48:23.392Z,21.20
2018-02-24T15:50:51.004Z,22.73
2018-02-24T15:53:18.607Z,20.73
2018-02-24T15:55:46.200Z,20.53
2018-02-24T15:58:13.761Z,21.13
2018-02-24T16:00:41.383Z,21.33
2018-02-24T16:03:09.463Z,21.10
2018-02-24T16:05:37.063Z,21.33
2018-02-24T16:08:04.684Z,21.57
2018-02-24T16:10:32.233Z,21.03
2018-02-24T16:12:59.829Z,19.37
2018-02-24T16:15:27.428Z,18.73
2018-02-24T16:17:54.931Z,20.47
2018-02-24T16:20:22.537Z,20.10
2018-02-24T16:22:50.178Z,19.30
2018-02-24T16:25:17.796Z,18.83
2018-02-24T16:27:45.775Z,18.17
2018-02-24T16:30:13.425Z,19.93
2018-02-24T16:32:41.013Z,19.13
2018-02-24T16:35:08.659Z,21.70
2018-02-24T16:37:36.315Z,17.70
2018-02-24T16:40:04.251Z,19.47
2018-02-24T16:42:31.886Z,18.00
2018-02-24T16:44:59.602Z,18.00
2018-02-24T16:47:27.181Z,18.63
2018-02-24T16:49:55.802Z,19.47
2018-02-24T16:52:23.387Z,18.60
2018-02-24T16:54:50.982Z,17.23
2018-02-24T16:57:18.595Z,18.13
2018-02-24T16:59:46.173Z,16.87
2018-02-24T17:02:13.780Z,17.53
2018-02-24T17:04:41.768Z,18.10
2018-02-24T17:07:09.377Z,18.37
2018-02-24T17:09:36.972Z,17.47
2018-02-24T17:12:05.000Z,17.80
2018-02-24T17:14:32.578Z,15.87
2018-02-24T17:17:00.207Z,18.93
2018-02-24T17:19:27.808Z,14.53
2018-02-24T17:21:55.384Z,14.47
2018-02-24T17:24:22.969Z,15.53
2018-02-24T17:26:50.567Z,14.13
2018-02-24T17:29:18.220Z,15.60
2018-02-24T17:31:45.827Z,15.43
2018-02-24T17:34:13.382Z,14.07
2018-02-24T17:36:41.037Z,15.57
2018-02-24T17:39:08.821Z,15.13
2018-02-24T17:41:36.499Z,14.63
2018-02-24T17:44:04.118Z,13.50
2018-02-24T17:46:31.741Z,14.60
2018-02-24T17:48:59.341Z,14.17
2018-02-24T17:51:27.019Z,14.97
2018-02-24T17:53:54.651Z,13.17
2018-02-24T17:56:22.260Z,15.37
2018-02-24T17:58:50.761Z,13.33
2018-02-24T18:01:18.343Z,13.37
2018-02-24T18:03:45.932Z,13.43
2018-02-24T18:06:13.480Z,13.57
2018-02-24T18:08:41.086Z,12.47
2018-02-24T18:11:08.613Z,13.40
2018-02-24T18:13:36.231Z,11.43
2018-02-24T18:16:03.825Z,13.57
2018-02-24T18:18:31.428Z,12.80
2018-02-24T18:20:59.063Z,12.70
2018-02-24T18:23:26.683Z,12.43
2018-02-24T18:25:54.699Z,12.20
2018-02-24T18:28:22.337Z,12.70
2018-02-24T18:30:49.908Z,12.70
2018-02-24T18:33:17.519Z,11.70
2018-02-24T18:35:45.095Z,12.97
2018-02-24T18:38:12.723Z,12.83
2018-02-24T18:40:40.385Z,12.03
2018-02-24T18:43:07.984Z,12.73
2018-02-24T18:45:35.552Z,12.37
2018-02-24T18:48:03.246Z,13.10
2018-02-24T18:50:30.822Z,11.37
2018-02-24T18:52:58.417Z,10.90
2018-02-24T18:55:26.049Z,11.83
2018-02-24T18:57:53.682Z,11.03
2018-02-24T19:00:21.305Z,12.97
2018-02-24T19:02:49.068Z,13.23
2018-02-24T19:05:16.727Z,12.53
2018-02-24T19:07:44.755Z,12.17
2018-02-24T19:10:12.465Z,11.80
2018-02-24T19:12:40.075Z,13.40
2018-02-24T19:15:07.791Z,12.43
2018-02-24T19:17:35.352Z,12.63
2018-02-24T19:20:03.039Z,14.57
2018-02-24T19:22:30.631Z,12.20
2018-02-24T19:24:58.228Z,13.20
2018-02-24T19:27:25.828Z,11.30
2018-02-24T19:29:53.475Z,12.93
2018-02-24T19:32:21.014Z,11.63
2018-02-24T19:34:48.774Z,12.83
2018-02-24T19:37:16.425Z,11.87
2018-02-24T19:39:44.164Z,13.17
2018-02-24T19:42:11.753Z,11.93
2018-02-24T19:44:39.307Z,12.90
2018-02-24T19:47:07.007Z,12.27
2018-02-24T19:49:34.620Z,13.27
2018-02-24T19:52:02.385Z,11.83
2018-02-24T19:54:29.964Z,11.47
2018-02-24T19:56:57.574Z,12.30
2018-02-24T19:59:26.706Z,12.40
2018-02-24T20:01:54.299Z,12.57
2018-02-24T20:04:21.918Z,13.33
2018-02-24T20:06:49.485Z,13.20
2018-02-24T20:09:17.170Z,11.20
2018-02-24T20:11:44.803Z,12.23
2018-02-24T20:14:12.595Z,14.17
2018-02-24T20:16:40.221Z,12.33
2018-02-24T20:19:07.792Z,13.00
2018-02-24T20:21:35.340Z,13.30
2018-02-24T20:24:03.084Z,13.10
2018-02-24T20:26:30.693Z,12.80
2018-02-24T20:28:58.204Z,12.73
2018-02-24T20:31:25.807Z,12.57
2018-02-24T20:33:53.488Z,11.53
2018-02-24T20:36:21.109Z,11.33
2018-02-24T20:38:48.860Z,13.77
2018-02-24T20:41:16.450Z,12.97
2018-02-24T20:43:44.072Z,14.67
2018-02-24T20:46:11.661Z,12.23
2018-02-24T20:48:39.221Z,13.70
2018-02-24T20:51:06.795Z,12.30
2018-02-24T20:53:34.528Z,11.53
2018-02-24T20:56:02.286Z,11.53
2018-02-24T20:58:29.893Z,12.40
2018-02-24T21:00:57.543Z,11.73
2018-02-24T21:03:25.074Z,12.63
2018-02-24T21:05:52.672Z,11.50
2018-02-24T21:08:20.290Z,13.47
2018-02-24T21:10:47.889Z,11.63
2018-02-24T21:13:15.471Z,12.33
2018-02-24T21:15:43.714Z,13.63
2018-02-24T21:18:11.325Z,10.63
2018-02-24T21:20:38.886Z,11.97
2018-02-24T21:23:06.507Z,11.60
2018-02-24T21:25:34.535Z,12.33
2018-02-24T21:28:02.089Z,12.30
2018-02-24T21:30:29.781Z,10.57
2018-02-24T21:32:57.398Z,11.60
2018-02-24T21:35:25.005Z,12.10
2018-02-24T21:37:52.549Z,12.33
2018-02-24T21:40:20.112Z,10.40
2018-02-24T21:42:47.760Z,11.63
2018-02-24T21:45:15.307Z,11.70
2018-02-24T21:47:42.914Z,12.87
2018-02-24T21:50:10.573Z,12.30
2018-02-24T21:52:38.115Z,13.03
2018-02-24T21:55:05.656Z,13.20
2018-02-24T21:57:33.275Z,12.40
2018-02-24T22:00:01.168Z,11.57
2018-02-24T22:02:29.522Z,13.27
2018-02-24T22:04:57.217Z,11.63
2018-02-24T22:07:25.647Z,12.67
2018-02-24T22:09:54.124Z,12.93
2018-02-24T22:12:22.101Z,14.07
2018-02-24T22:14:49.690Z,12.80
2018-02-24T22:17:18.138Z,12.57
2018-02-24T22:19:46.106Z,13.87
2018-02-24T22:22:13.753Z,14.17
2018-02-24T22:24:43.003Z,12.50
2018-02-24T22:27:10.599Z,15.13
2018-02-24T22:29:38.289Z,13.00
2018-02-24T22:32:06.216Z,13.83
2018-02-24T22:34:33.833Z,12.90
2018-02-24T22:37:01.487Z,12.20
2018-02-24T22:39:29.128Z,13.00
2018-02-24T22:41:59.232Z,12.90
2018-02-24T22:44:26.855Z,15.90
2018-02-24T22:46:54.466Z,16.20
2018-02-24T22:49:22.484Z,13.77
2018-02-24T22:51:50.072Z,14.73
2018-02-24T22:54:17.684Z,15.77
2018-02-24T22:56:45.300Z,13.47
2018-02-24T22:59:12.904Z,15.13
2018-02-24T23:01:40.533Z,14.87
2018-02-24T23:04:08.576Z,14.13
2018-02-24T23:06:36.203Z,13.33
2018-02-24T23:09:03.786Z,13.13
2018-02-24T23:14:24.872Z,13.83
2018-02-24T23:16:53.418Z,16.23
2018-02-24T23:19:27.784Z,13.77
2018-02-24T23:21:57.106Z,15.20
2018-02-24T23:24:25.008Z,13.63
2018-02-24T23:26:57.931Z,13.60
2018-02-24T23:29:26.050Z,15.40
2018-02-24T23:31:53.723Z,15.47
2018-02-24T23:34:24.073Z,14.57
2018-02-24T23:36:54.148Z,14.67
2018-02-24T23:39:23.740Z,14.37
2018-02-24T23:41:51.515Z,19.60
2018-02-24T23:44:20.264Z,17.43
2018-02-24T23:46:50.253Z,14.80
2018-02-24T23:49:18.036Z,14.07
2018-02-24T23:54:24.427Z,13.37
2018-02-24T23:56:53.224Z,15.90
2018-02-24T23:59:23.191Z,14.17
